Time;durP1;ratioP1;P1;durP2;ratioP2;P2;SDS_P1;SDS_P2;PMS_P1;PMS_P2;Temp;Humidity;BMP_temperature;BMP_pressure;BME280_temperature;BME280_humidity;BME280_pressure;Samples;Min_cycle;Max_cycle;Signal;HPM_P1;HPM_P2
2022/07/26 00:18:48;;;;;;;10.50;4.65;;;21.30;89.80;;;;;;4934254;29;20043;-92
2022/07/26 00:21:25;;;;;;;10.02;4.63;;;21.30;90.10;;;;;;4963421;28;20501;-88
2022/07/26 00:23:56;;;;;;;10.80;4.23;;;21.40;90.50;;;;;;4974880;28;20462;-90
2022/07/26 00:26:22;;;;;;;10.40;4.40;;;21.40;90.70;;;;;;4974438;28;20023;-88
2022/07/26 00:28:48;;;;;;;10.30;4.28;;;21.30;90.70;;;;;;4979146;28;20034;-89
2022/07/26 00:31:14;;;;;;;11.25;4.47;;;21.40;91.60;;;;;;4974085;28;20481;-89
2022/07/26 00:33:40;;;;;;;13.23;5.63;;;21.20;91.60;;;;;;4973779;28;20031;-91
2022/07/26 00:36:06;;;;;;;7.57;4.70;;;21.20;92.00;;;;;;4974186;28;20019;-92
2022/07/26 00:38:34;;;;;;;10.47;5.07;;;21.20;92.20;;;;;;4974472;28;20030;-89
2022/07/26 00:41:01;;;;;;;11.48;5.30;;;21.10;92.40;;;;;;4985264;28;20117;-89
2022/07/26 00:43:27;;;;;;;11.52;4.60;;;21.20;92.80;;;;;;4996299;28;20011;-90
2022/07/26 00:45:53;;;;;;;9.57;4.85;;;21.00;92.90;;;;;;4987429;28;20085;-88
2022/07/26 00:48:21;;;;;;;15.45;4.60;;;21.00;93.70;;;;;;4975511;28;20033;-92
2022/07/26 00:50:47;;;;;;;18.73;9.95;;;21.00;93.70;;;;;;4974768;28;20023;-90
2022/07/26 00:53:13;;;;;;;17.92;10.25;;;21.10;94.30;;;;;;4976996;28;20109;-87
2022/07/26 00:55:39;;;;;;;13.45;6.32;;;21.10;94.30;;;;;;4984016;28;20019;-88
2022/07/26 00:58:05;;;;;;;10.90;5.60;;;20.90;94.90;;;;;;4986283;28;20026;-86
2022/07/26 01:00:32;;;;;;;8.45;5.25;;;20.90;95.10;;;;;;4987125;28;20022;-87
2022/07/26 01:02:59;;;;;;;10.73;5.53;;;20.80;95.70;;;;;;5000862;28;20073;-87
2022/07/26 01:05:25;;;;;;;10.85;4.88;;;20.80;95.90;;;;;;5020408;28;20036;-89
2022/07/26 01:07:52;;;;;;;13.07;5.28;;;20.70;96.50;;;;;;5026819;28;20052;-89
2022/07/26 01:10:18;;;;;;;13.48;4.63;;;20.70;97.20;;;;;;5024761;28;20017;-89
2022/07/26 01:12:45;;;;;;;8.50;5.07;;;20.70;97.50;;;;;;5026173;28;20128;-89
2022/07/26 01:15:12;;;;;;;11.65;5.00;;;20.70;97.90;;;;;;5032921;28;20018;-88
2022/07/26 01:17:38;;;;;;;10.77;5.07;;;20.60;98.30;;;;;;5018759;28;20121;-89
2022/07/26 01:20:07;;;;;;;9.77;5.32;;;20.70;98.80;;;;;;5015596;28;20108;-90
2022/07/26 01:22:33;;;;;;;10.10;5.32;;;20.70;98.70;;;;;;5015804;28;20138;-88
2022/07/26 01:24:58;;;;;;;10.05;5.15;;;20.70;99.10;;;;;;5033840;28;20556;-88
2022/07/26 01:27:24;;;;;;;9.77;4.95;;;20.70;99.40;;;;;;5015517;28;20124;-88
2022/07/26 01:29:51;;;;;;;9.68;5.47;;;20.70;99.90;;;;;;5015185;28;20030;-89
2022/07/26 01:32:17;;;;;;;12.10;5.53;;;20.60;99.90;;;;;;5037501;23;20050;-56
2022/07/26 01:34:43;;;;;;;11.73;5.70;;;20.60;99.90;;;;;;5048872;28;20037;-56
2022/07/26 01:37:09;;;;;;;11.77;5.55;;;20.60;99.90;;;;;;5049424;28;20103;-56
2022/07/26 01:39:35;;;;;;;10.98;5.63;;;20.60;99.90;;;;;;5049544;28;20094;-56
2022/07/26 01:42:01;;;;;;;11.32;4.93;;;20.60;99.90;;;;;;5049678;28;20028;-56
2022/07/26 01:44:26;;;;;;;8.90;5.32;;;20.60;99.90;;;;;;5049467;28;20037;-56
2022/07/26 01:46:52;;;;;;;13.27;5.43;;;20.60;99.90;;;;;;5049535;28;20182;-57
2022/07/26 01:49:18;;;;;;;10.55;5.40;;;20.50;99.90;;;;;;5049412;28;20029;-56
2022/07/26 01:51:44;;;;;;;10.95;5.72;;;20.40;99.90;;;;;;5049906;28;20082;-57
2022/07/26 01:54:10;;;;;;;12.77;5.78;;;20.60;99.90;;;;;;5049471;28;20017;-56
2022/07/26 01:56:35;;;;;;;11.50;5.55;;;20.60;99.90;;;;;;5049203;28;20473;-56
2022/07/26 01:59:01;;;;;;;8.38;4.95;;;20.60;99.90;;;;;;5049617;28;20061;-56
2022/07/26 02:01:27;;;;;;;11.93;5.05;;;20.60;99.90;;;;;;5049397;28;20375;-56
2022/07/26 02:03:53;;;;;;;9.55;5.30;;;20.60;99.90;;;;;;5049251;28;20408;-56
2022/07/26 02:06:18;;;;;;;11.75;5.65;;;20.50;99.90;;;;;;5049374;28;20033;-57
2022/07/26 02:08:44;;;;;;;9.35;5.43;;;20.50;99.90;;;;;;5049467;28;20037;-56
2022/07/26 02:11:10;;;;;;;8.88;5.03;;;20.40;99.90;;;;;;5049239;28;20017;-56
2022/07/26 02:13:40;;;;;;;9.18;5.60;;;20.30;99.90;;;;;;5049756;28;20786;-56
2022/07/26 02:16:13;;;;;;;8.30;4.82;;;20.30;99.90;;;;;;5053086;28;20125;-57
2022/07/26 02:18:39;;;;;;;13.32;6.03;;;20.30;99.90;;;;;;5053014;28;20123;-56
2022/07/26 02:21:06;;;;;;;12.60;5.45;;;20.30;99.90;;;;;;5052876;28;20083;-56
2022/07/26 02:23:33;;;;;;;14.40;6.53;;;20.30;99.90;;;;;;5053006;28;20435;-57
2022/07/26 02:25:59;;;;;;;15.60;6.40;;;20.40;99.90;;;;;;5052843;28;20108;-57
2022/07/26 02:28:24;;;;;;;10.85;5.93;;;20.40;99.90;;;;;;5052894;28;20104;-57
2022/07/26 02:30:50;;;;;;;13.38;5.75;;;20.30;99.90;;;;;;5052756;28;20033;-56
2022/07/26 02:33:17;;;;;;;12.45;6.15;;;20.20;99.90;;;;;;5052491;28;20048;-57
2022/07/26 02:35:43;;;;;;;9.60;6.22;;;20.10;99.90;;;;;;5052751;28;20027;-57
2022/07/26 02:38:12;;;;;;;14.95;6.55;;;20.10;99.90;;;;;;5052920;28;20033;-56
2022/07/26 02:40:38;;;;;;;12.02;6.10;;;20.00;99.90;;;;;;5052945;28;20025;-56
2022/07/26 02:43:06;;;;;;;11.48;6.53;;;20.00;99.90;;;;;;5052509;28;20029;-56
2022/07/26 02:45:31;;;;;;;;;;;20.00;99.90;;;;;;5052984;28;20040;-56
2022/07/26 02:47:58;;;;;;;10.27;5.82;;;20.10;99.90;;;;;;5052418;28;19908;-57
2022/07/26 02:50:25;;;;;;;12.05;6.28;;;20.20;99.90;;;;;;5052280;28;20063;-57
2022/07/26 02:52:51;;;;;;;13.90;6.22;;;20.00;99.90;;;;;;5052558;28;20054;-56
2022/07/26 02:55:20;;;;;;;15.13;5.73;;;20.00;99.90;;;;;;5052478;28;20029;-56
2022/07/26 02:57:46;;;;;;;12.52;5.95;;;19.90;99.90;;;;;;5052052;28;20480;-56
2022/07/26 03:00:14;;;;;;;11.73;6.47;;;19.80;99.90;;;;;;5052196;28;20029;-57
2022/07/26 03:02:40;;;;;;;13.85;6.18;;;19.80;99.90;;;;;;5052122;28;20029;-56
2022/07/26 03:05:07;;;;;;;12.48;5.97;;;19.70;99.90;;;;;;5052065;28;20464;-56
2022/07/26 03:07:33;;;;;;;14.15;6.07;;;19.70;99.90;;;;;;5052357;28;20045;-56
2022/07/26 03:09:59;;;;;;;11.43;6.00;;;19.80;99.90;;;;;;5052167;28;20029;-56
2022/07/26 03:12:25;;;;;;;12.15;6.20;;;19.80;99.90;;;;;;5052133;28;20183;-57
2022/07/26 03:14:51;;;;;;;12.10;5.63;;;19.80;99.90;;;;;;5051786;28;20034;-56
2022/07/26 03:17:17;;;;;;;13.40;6.75;;;19.80;99.90;;;;;;5052149;28;20037;-56
2022/07/26 03:19:43;;;;;;;13.95;7.07;;;19.90;99.90;;;;;;5051765;28;20527;-56
2022/07/26 03:22:09;;;;;;;14.90;6.68;;;19.90;99.90;;;;;;5051681;28;20045;-56
2022/07/26 03:24:35;;;;;;;11.93;6.10;;;19.90;99.90;;;;;;5033601;28;20025;-56
2022/07/26 03:27:01;;;;;;;10.40;6.15;;;19.90;99.90;;;;;;5050653;28;20036;-57
2022/07/26 03:29:27;;;;;;;12.07;5.50;;;20.00;99.90;;;;;;5051519;28;20021;-56
2022/07/26 03:31:52;;;;;;;10.77;6.00;;;20.00;99.90;;;;;;5051845;28;20029;-57
2022/07/26 03:34:18;;;;;;;10.05;5.40;;;20.10;99.90;;;;;;5051229;28;20052;-57
2022/07/26 03:36:44;;;;;;;9.98;6.32;;;20.20;99.90;;;;;;5051469;28;20513;-56
2022/07/26 03:39:10;;;;;;;13.48;5.93;;;20.10;99.90;;;;;;5051490;28;20540;-56
2022/07/26 03:41:35;;;;;;;10.32;5.57;;;20.20;99.90;;;;;;5051399;28;20044;-56
2022/07/26 03:44:01;;;;;;;9.75;6.47;;;20.20;99.90;;;;;;5051286;28;20107;-57
2022/07/26 03:46:27;;;;;;;12.30;6.05;;;20.20;99.90;;;;;;5051225;28;20017;-57
2022/07/26 03:48:53;;;;;;;11.25;6.22;;;20.10;99.90;;;;;;5051519;28;20063;-56
2022/07/26 03:51:19;;;;;;;11.00;6.15;;;20.10;99.90;;;;;;5051161;28;20017;-57
2022/07/26 03:53:44;;;;;;;11.85;5.57;;;20.20;99.90;;;;;;5051037;28;20665;-57
2022/07/26 03:56:30;;;;;;;11.95;6.70;;;20.20;99.90;;;;;;5050915;28;20033;-57
2022/07/26 03:58:58;;;;;;;9.88;5.63;;;20.00;99.90;;;;;;5051205;28;20049;-57
2022/07/26 04:01:24;;;;;;;11.63;6.05;;;20.20;99.90;;;;;;5050811;28;20155;-56
2022/07/26 04:03:50;;;;;;;11.68;5.85;;;20.20;99.90;;;;;;5050947;28;20032;-56
2022/07/26 04:06:15;;;;;;;12.88;6.22;;;20.10;99.90;;;;;;5050852;28;20032;-57
2022/07/26 04:08:41;;;;;;;15.57;5.97;;;20.10;99.90;;;;;;5050736;28;20025;-57
2022/07/26 04:11:07;;;;;;;10.98;5.75;;;20.10;99.90;;;;;;5050885;28;20086;-56
2022/07/26 04:13:34;;;;;;;12.18;6.25;;;20.10;99.90;;;;;;5050782;28;20025;-56
2022/07/26 04:16:00;;;;;;;12.20;6.50;;;20.20;99.90;;;;;;5050609;28;20051;-56
2022/07/26 04:18:25;;;;;;;14.60;6.38;;;20.30;99.90;;;;;;5050511;28;20560;-56
2022/07/26 04:20:51;;;;;;;13.32;6.13;;;20.30;99.90;;;;;;5050426;28;20108;-56
2022/07/26 04:23:17;;;;;;;13.02;6.35;;;20.30;99.90;;;;;;5050502;28;20399;-56
2022/07/26 04:25:43;;;;;;;12.98;6.63;;;20.30;99.90;;;;;;5050312;28;20491;-56
2022/07/26 04:28:10;;;;;;;12.27;7.03;;;20.40;99.90;;;;;;5050813;28;20033;-57
2022/07/26 04:30:36;;;;;;;11.55;6.45;;;20.50;99.90;;;;;;5050509;28;20029;-56
2022/07/26 04:33:03;;;;;;;14.32;6.57;;;20.50;99.90;;;;;;5050386;28;20049;-56
2022/07/26 04:35:29;;;;;;;10.45;6.50;;;20.50;99.90;;;;;;5050357;28;20044;-56
2022/07/26 04:37:54;;;;;;;18.38;5.63;;;20.60;99.90;;;;;;5049935;28;20029;-57
2022/07/26 04:40:22;;;;;;;14.93;6.38;;;20.60;99.90;;;;;;5050441;28;20138;-57
2022/07/26 04:42:49;;;;;;;10.60;6.50;;;20.60;99.90;;;;;;5050504;28;20081;-57
2022/07/26 04:45:15;;;;;;;10.35;5.75;;;20.70;99.90;;;;;;5050245;28;20648;-57
2022/07/26 04:47:42;;;;;;;12.00;7.07;;;20.70;99.90;;;;;;5050458;28;20033;-56
2022/07/26 04:50:09;;;;;;;14.07;6.75;;;20.70;99.90;;;;;;5050189;28;20040;-57
2022/07/26 04:52:35;;;;;;;13.98;6.43;;;20.70;99.90;;;;;;5049988;28;20404;-56
2022/07/26 04:55:01;;;;;;;13.15;6.35;;;20.60;99.90;;;;;;5049900;28;20467;-57
2022/07/26 04:57:26;;;;;;;13.65;6.57;;;20.60;99.90;;;;;;5050105;28;20119;-56
2022/07/26 04:59:52;;;;;;;12.35;6.28;;;20.50;99.90;;;;;;5049889;28;20468;-56
2022/07/26 05:02:18;;;;;;;15.70;6.93;;;20.50;99.90;;;;;;5031930;28;20452;-56
2022/07/26 05:04:44;;;;;;;12.25;6.60;;;20.40;99.90;;;;;;5049982;28;20272;-56
2022/07/26 05:07:09;;;;;;;12.02;6.82;;;20.40;99.90;;;;;;5049791;28;20036;-56
2022/07/26 05:09:35;;;;;;;12.35;6.90;;;20.40;99.90;;;;;;5049751;28;20028;-56
2022/07/26 05:12:01;;;;;;;14.38;6.72;;;20.50;99.90;;;;;;5049834;28;20108;-56
2022/07/26 05:14:27;;;;;;;18.00;7.43;;;20.70;99.90;;;;;;5049822;28;20078;-57
2022/07/26 05:16:52;;;;;;;20.08;7.28;;;20.70;99.90;;;;;;5049766;28;20707;-56
2022/07/26 05:19:18;;;;;;;12.45;7.28;;;20.80;99.90;;;;;;5049681;28;20032;-57
2022/07/26 05:21:44;;;;;;;9.15;6.55;;;20.80;99.90;;;;;;5031738;28;20024;-56
2022/07/26 05:24:09;;;;;;;11.25;6.90;;;21.00;99.90;;;;;;5049579;28;20025;-56
2022/07/26 05:26:35;;;;;;;16.90;7.53;;;21.00;99.90;;;;;;5049891;28;20452;-57
2022/07/26 05:29:01;;;;;;;21.90;8.43;;;21.00;99.90;;;;;;5049503;28;20112;-57
2022/07/26 05:31:27;;;;;;;17.92;7.53;;;21.10;99.90;;;;;;5049815;28;20021;-57
2022/07/26 05:33:54;;;;;;;13.02;6.90;;;21.20;99.90;;;;;;5049493;28;20108;-57
2022/07/26 05:36:20;;;;;;;23.67;7.95;;;21.30;99.90;;;;;;5031557;28;20365;-56
2022/07/26 05:38:46;;;;;;;16.52;7.15;;;21.40;99.90;;;;;;5049341;28;20045;-57
2022/07/26 05:41:12;;;;;;;16.45;7.82;;;21.40;99.90;;;;;;5031757;28;20066;-57
2022/07/26 05:43:38;;;;;;;14.10;7.22;;;21.50;99.90;;;;;;5049276;28;20028;-57
2022/07/26 05:46:04;;;;;;;11.52;6.82;;;21.60;99.90;;;;;;5048857;28;20490;-57
2022/07/26 05:48:29;;;;;;;12.23;7.50;;;21.80;99.90;;;;;;5049630;28;20660;-57
2022/07/26 05:50:55;;;;;;;16.05;8.27;;;21.90;99.90;;;;;;5053531;28;20380;-56
2022/07/26 05:53:21;;;;;;;13.75;7.90;;;22.00;99.90;;;;;;5053470;28;20091;-56
2022/07/26 05:55:46;;;;;;;22.30;9.63;;;22.00;99.90;;;;;;5053285;28;20025;-56
2022/07/26 05:58:12;;;;;;;16.25;8.88;;;22.10;99.90;;;;;;5053444;28;20464;-56
2022/07/26 06:00:38;;;;;;;13.98;8.68;;;22.10;99.90;;;;;;5053146;28;20033;-56
2022/07/26 06:03:21;;;;;;;17.45;9.57;;;22.10;99.90;;;;;;5053223;28;20033;-56
2022/07/26 06:05:54;;;;;;;15.00;8.68;;;22.10;99.90;;;;;;5053014;28;20423;-57
2022/07/26 06:08:20;;;;;;;20.40;9.50;;;22.20;99.90;;;;;;5053092;28;20028;-57
2022/07/26 06:10:47;;;;;;;19.38;9.50;;;22.20;99.90;;;;;;5053124;28;20037;-57
2022/07/26 06:13:13;;;;;;;20.02;10.10;;;22.20;99.90;;;;;;5053067;28;20637;-56
2022/07/26 06:15:40;;;;;;;14.70;9.30;;;22.20;99.90;;;;;;5053040;28;20040;-57
2022/07/26 06:18:06;;;;;;;14.98;9.38;;;22.30;99.90;;;;;;5052796;28;20041;-57
2022/07/26 06:20:32;;;;;;;19.48;10.18;;;22.20;99.90;;;;;;5052778;28;20040;-56
2022/07/26 06:22:58;;;;;;;16.65;9.95;;;22.20;99.90;;;;;;5052965;28;20056;-57
2022/07/26 06:25:25;;;;;;;15.52;9.70;;;22.20;99.90;;;;;;5052704;28;20025;-56
2022/07/26 06:27:51;;;;;;;19.58;10.85;;;22.20;99.90;;;;;;5052950;28;20033;-57
2022/07/26 06:30:17;;;;;;;15.85;11.13;;;22.20;99.90;;;;;;5052746;28;20502;-57
2022/07/26 06:32:43;;;;;;;19.20;10.50;;;22.00;99.90;;;;;;5052255;28;20714;-56
2022/07/26 06:35:13;;;;;;;16.65;11.23;;;21.90;99.90;;;;;;5052914;28;20029;-57
2022/07/26 06:37:40;;;;;;;18.60;12.00;;;21.70;99.90;;;;;;5034420;28;20094;-56
2022/07/26 06:40:08;;;;;;;21.65;12.63;;;21.70;99.90;;;;;;5052508;28;20068;-56
2022/07/26 06:42:35;;;;;;;25.80;13.95;;;21.60;99.90;;;;;;5052483;28;20112;-56
2022/07/26 06:45:02;;;;;;;23.37;14.27;;;21.50;99.90;;;;;;5052460;28;20112;-56
2022/07/26 06:47:28;;;;;;;;;;;21.40;99.90;;;;;;5069378;28;20155;-56
2022/07/26 06:49:53;;;;;;;19.38;12.52;;;21.30;99.90;;;;;;5072245;28;20403;-56
2022/07/26 06:52:20;;;;;;;16.38;11.80;;;21.30;99.90;;;;;;5072071;28;20021;-56
2022/07/26 06:54:46;;;;;;;21.85;10.88;;;21.40;99.90;;;;;;5072356;28;20391;-56
2022/07/26 06:57:12;;;;;;;17.83;12.10;;;21.40;99.90;;;;;;5072113;28;20525;-56
2022/07/26 06:59:38;;;;;;;16.92;12.27;;;21.30;99.90;;;;;;5071765;28;20048;-55
2022/07/26 07:02:04;;;;;;;18.35;12.55;;;20.90;99.90;;;;;;5072125;28;20041;-55
2022/07/26 07:04:32;;;;;;;22.50;14.57;;;21.10;99.90;;;;;;5072266;28;20427;-56
2022/07/26 07:07:03;;;;;;;15.60;13.60;;;20.90;99.90;;;;;;5072027;28;20088;-56
2022/07/26 07:09:30;;;;;;;19.17;15.50;;;20.70;99.90;;;;;;5071881;28;20028;-56
2022/07/26 07:11:55;;;;;;;18.10;15.07;;;20.70;99.90;;;;;;5071490;28;20047;-57
2022/07/26 07:14:21;;;;;;;24.45;18.08;;;20.60;99.90;;;;;;5070960;28;20475;-57
2022/07/26 07:16:47;;;;;;;20.35;17.17;;;20.50;99.90;;;;;;5065238;28;20353;-58
2022/07/26 07:19:12;;;;;;;24.63;17.98;;;20.40;99.90;;;;;;5054531;28;20029;-57
2022/07/26 07:21:38;;;;;;;20.17;16.65;;;20.40;99.90;;;;;;5070160;28;20016;-57
2022/07/26 07:24:05;;;;;;;23.92;18.33;;;20.40;99.90;;;;;;5091334;28;20104;-58
2022/07/26 07:26:31;;;;;;;29.83;19.37;;;20.40;99.90;;;;;;5084520;28;20146;-57
2022/07/26 07:28:57;;;;;;;27.17;18.45;;;20.50;99.90;;;;;;5079319;28;20684;-58
2022/07/26 07:31:24;;;;;;;23.98;19.48;;;20.40;99.90;;;;;;5081578;28;20546;-57
2022/07/26 07:33:49;;;;;;;26.73;18.35;;;20.40;99.90;;;;;;5086888;28;20040;-57
2022/07/26 07:36:15;;;;;;;24.63;19.45;;;20.40;99.90;;;;;;5070713;28;20485;-56
2022/07/26 07:38:43;;;;;;;23.38;19.83;;;20.40;99.90;;;;;;5070404;28;20059;-57
2022/07/26 07:41:08;;;;;;;25.10;21.48;;;20.40;99.90;;;;;;5070764;28;20093;-57
2022/07/26 07:43:34;;;;;;;27.63;21.38;;;20.30;99.90;;;;;;5070701;28;20016;-60
2022/07/26 07:46:00;;;;;;;31.13;22.13;;;20.10;99.90;;;;;;5071285;28;20021;-59
2022/07/26 07:48:25;;;;;;;26.15;21.23;;;20.00;99.90;;;;;;5071422;28;20432;-60
2022/07/26 07:50:51;;;;;;;26.52;21.27;;;20.00;99.90;;;;;;5071355;28;20025;-60
2022/07/26 07:53:17;;;;;;;26.35;21.30;;;20.10;99.90;;;;;;5070960;28;20039;-59
2022/07/26 07:55:42;;;;;;;26.67;21.85;;;20.10;99.90;;;;;;5070910;28;20031;-57
2022/07/26 07:58:08;;;;;;;25.30;19.73;;;20.00;99.90;;;;;;5070849;28;20066;-55
2022/07/26 08:00:34;;;;;;;24.98;20.60;;;20.20;99.90;;;;;;5062547;28;20024;-54
2022/07/26 08:02:59;;;;;;;23.35;19.30;;;20.20;99.90;;;;;;5075070;28;20059;-55
2022/07/26 08:05:25;;;;;;;25.98;19.83;;;20.20;99.90;;;;;;5068799;28;20024;-55
2022/07/26 08:07:51;;;;;;;25.83;19.92;;;20.20;99.90;;;;;;5068724;28;20029;-55
2022/07/26 08:10:16;;;;;;;28.20;19.90;;;20.20;99.90;;;;;;5068867;28;20107;-56
2022/07/26 08:12:43;;;;;;;21.42;18.10;;;20.10;99.90;;;;;;5067887;28;20032;-56
2022/07/26 08:15:09;;;;;;;23.23;17.30;;;20.20;99.90;;;;;;5069076;28;20438;-55
2022/07/26 08:17:35;;;;;;;23.88;18.60;;;20.20;99.90;;;;;;5067030;28;20559;-55
2022/07/26 08:20:01;;;;;;;27.73;19.23;;;20.30;99.90;;;;;;5070319;28;20074;-55
2022/07/26 08:22:26;;;;;;;25.30;17.38;;;20.40;99.90;;;;;;5071389;28;20382;-56
2022/07/26 08:24:52;;;;;;;22.08;17.85;;;20.30;99.90;;;;;;5071241;28;20032;-56
2022/07/26 08:27:18;;;;;;;25.27;18.75;;;20.40;99.90;;;;;;5070515;28;20038;-56
2022/07/26 08:29:43;;;;;;;23.33;18.60;;;20.40;99.90;;;;;;5070405;28;20028;-56
2022/07/26 08:32:09;;;;;;;27.95;17.75;;;20.40;99.90;;;;;;5070150;28;20021;-56
2022/07/26 08:34:35;;;;;;;23.83;17.35;;;20.50;99.90;;;;;;5058995;28;20048;-56
2022/07/26 08:37:01;;;;;;;22.05;17.05;;;20.50;99.90;;;;;;5059657;28;20089;-56
2022/07/26 08:39:26;;;;;;;21.42;17.63;;;20.50;99.90;;;;;;5065167;28;20028;-57
2022/07/26 08:41:52;;;;;;;21.88;16.33;;;20.50;99.90;;;;;;5059504;28;20017;-57
2022/07/26 08:44:18;;;;;;;21.25;16.13;;;20.50;99.90;;;;;;5070123;28;20029;-59
2022/07/26 08:46:43;;;;;;;20.67;16.50;;;20.40;99.90;;;;;;5070139;28;20077;-56
2022/07/26 08:49:11;;;;;;;19.67;16.52;;;20.40;99.90;;;;;;5060941;28;20032;-56
2022/07/26 08:51:43;;;;;;;20.05;16.13;;;20.20;99.90;;;;;;5050141;28;20063;-58
2022/07/26 08:54:12;;;;;;;19.95;14.88;;;20.30;99.90;;;;;;5052731;28;20032;-57
2022/07/26 08:56:49;;;;;;;21.40;15.95;;;20.20;99.90;;;;;;5058566;28;20036;-59
2022/07/26 08:59:17;;;;;;;21.13;16.00;;;20.30;99.90;;;;;;5067676;28;20438;-57
2022/07/26 09:02:10;;;;;;;17.88;14.38;;;20.30;99.90;;;;;;5060380;28;20689;-58
2022/07/26 09:04:41;;;;;;;16.38;12.73;;;20.30;99.90;;;;;;5050088;28;20044;-58
2022/07/26 09:07:14;;;;;;;20.83;14.93;;;20.20;99.90;;;;;;5059341;28;20028;-57
2022/07/26 09:10:01;;;;;;;18.95;14.27;;;20.30;99.90;;;;;;5069924;28;20035;-58
2022/07/26 09:12:28;;;;;;;18.63;14.23;;;20.30;99.90;;;;;;5066433;28;20048;-58
2022/07/26 09:14:53;;;;;;;23.45;15.38;;;20.50;99.90;;;;;;5063118;28;20048;-58
2022/07/26 09:17:21;;;;;;;18.65;15.20;;;20.40;99.90;;;;;;5069806;28;20068;-57
2022/07/26 09:20:18;;;;;;;18.90;14.82;;;20.40;99.90;;;;;;5069574;28;20062;-56
2022/07/26 09:23:07;;;;;;;19.23;14.48;;;20.40;99.90;;;;;;5029747;28;20095;-56
2022/07/26 09:25:39;;;;;;;20.25;16.08;;;20.40;99.90;;;;;;5053468;28;20029;-57
2022/07/26 09:28:25;;;;;;;17.98;15.65;;;20.20;99.90;;;;;;5064811;28;20115;-56
2022/07/26 09:31:03;;;;;;;20.20;15.32;;;20.00;99.90;;;;;;5069786;28;20036;-57
2022/07/26 09:33:49;;;;;;;20.48;15.20;;;19.80;99.90;;;;;;5069408;28;20055;-57
2022/07/26 09:36:16;;;;;;;21.23;16.17;;;19.60;99.90;;;;;;5069457;28;20040;-57
2022/07/26 09:38:46;;;;;;;24.08;16.75;;;19.60;99.90;;;;;;5069397;28;20479;-57
2022/07/26 09:41:18;;;;;;;23.48;16.30;;;19.50;99.90;;;;;;5069627;28;20025;-57
2022/07/26 09:43:44;;;;;;;24.60;16.38;;;19.40;99.90;;;;;;5069499;28;20024;-58
2022/07/26 09:46:10;;;;;;;20.20;16.27;;;19.30;99.90;;;;;;5069325;28;20062;-57
2022/07/26 09:48:38;;;;;;;20.33;16.08;;;19.30;99.90;;;;;;5069492;28;20025;-56
2022/07/26 09:51:05;;;;;;;19.70;14.15;;;19.30;99.90;;;;;;5068122;28;20090;-57
2022/07/26 09:53:43;;;;;;;20.83;14.43;;;19.30;99.90;;;;;;5066105;28;20082;-57
2022/07/26 09:56:09;;;;;;;17.50;14.13;;;19.20;99.90;;;;;;5069133;28;20040;-58
2022/07/26 09:58:36;;;;;;;19.73;13.63;;;19.30;99.90;;;;;;5055240;28;20042;-55
2022/07/26 10:01:02;;;;;;;19.35;13.60;;;19.30;99.90;;;;;;5052469;28;20048;-56
2022/07/26 10:03:32;;;;;;;17.67;13.48;;;19.40;99.90;;;;;;5059152;28;20033;-57
2022/07/26 10:05:59;;;;;;;16.90;13.77;;;19.50;99.90;;;;;;5057232;28;20055;-58
2022/07/26 10:08:26;;;;;;;16.52;12.50;;;19.60;99.90;;;;;;5059016;28;20017;-57
2022/07/26 10:10:59;;;;;;;17.63;11.40;;;19.50;99.90;;;;;;5057173;28;20029;-57
2022/07/26 10:13:26;;;;;;;15.07;12.07;;;19.50;99.90;;;;;;5054500;28;20033;-57
2022/07/26 10:15:52;;;;;;;;;;;19.40;99.90;;;;;;5049365;28;20104;-56
2022/07/26 10:18:36;;;;;;;14.10;11.13;;;19.50;99.90;;;;;;5049005;28;19955;-57
2022/07/26 10:21:22;;;;;;;15.63;10.95;;;19.50;99.90;;;;;;5046490;28;20018;-57
2022/07/26 10:24:22;;;;;;;15.98;10.38;;;19.60;99.90;;;;;;5027686;28;20026;-56
2022/07/26 10:26:48;;;;;;;15.68;10.52;;;19.60;99.90;;;;;;5029087;28;20058;-56
2022/07/26 10:29:16;;;;;;;16.35;10.20;;;19.60;99.90;;;;;;5032486;28;20025;-56
2022/07/26 10:31:44;;;;;;;15.93;8.93;;;19.60;99.90;;;;;;5048687;28;20447;-56
2022/07/26 10:34:09;;;;;;;;;;;19.50;99.90;;;;;;5044675;28;20056;-56
2022/07/26 10:36:38;;;;;;;15.68;10.57;;;19.50;99.90;;;;;;5071815;28;19912;-57
2022/07/26 10:39:15;;;;;;;17.17;10.68;;;19.40;99.90;;;;;;5058262;28;20519;-56
2022/07/26 10:41:44;;;;;;;15.20;11.03;;;19.40;99.90;;;;;;5056935;28;20074;-55
2022/07/26 10:44:25;;;;;;;13.73;10.20;;;19.30;99.90;;;;;;5061397;28;20017;-55
2022/07/26 10:47:02;;;;;;;14.93;9.55;;;19.30;99.90;;;;;;5058597;28;20024;-57
2022/07/26 10:49:36;;;;;;;12.60;10.30;;;19.20;99.90;;;;;;5062233;28;20032;-56
2022/07/26 10:52:05;;;;;;;14.35;10.20;;;19.30;99.90;;;;;;5050267;28;20620;-57
2022/07/26 10:54:31;;;;;;;20.60;11.32;;;19.30;99.90;;;;;;5052038;28;20472;-57
2022/07/26 10:56:56;;;;;;;19.58;10.02;;;19.30;99.90;;;;;;5052059;28;20087;-56
2022/07/26 10:59:32;;;;;;;13.48;9.02;;;19.20;99.90;;;;;;5033443;28;20033;-56
2022/07/26 11:01:58;;;;;;;13.27;9.23;;;19.20;99.90;;;;;;5051944;28;20463;-57
2022/07/26 11:04:24;;;;;;;13.65;9.50;;;19.10;99.90;;;;;;5051814;28;20069;-57
2022/07/26 11:06:50;;;;;;;13.77;9.00;;;19.20;99.90;;;;;;5052013;28;20009;-57
2022/07/26 11:09:18;;;;;;;15.82;9.48;;;19.30;99.90;;;;;;5053964;28;20028;-59
2022/07/26 11:11:44;;;;;;;15.13;9.07;;;19.30;99.90;;;;;;5060766;28;20043;-59
2022/07/26 11:14:13;;;;;;;10.88;8.23;;;19.30;99.90;;;;;;5059463;28;20148;-58
2022/07/26 11:16:47;;;;;;;13.07;8.95;;;19.30;99.90;;;;;;5057475;28;20529;-57
2022/07/26 11:19:16;;;;;;;13.57;8.85;;;19.40;99.90;;;;;;5059268;28;20361;-58
2022/07/26 11:21:43;;;;;;;16.35;8.95;;;19.50;99.90;;;;;;5060469;28;20052;-56
2022/07/26 11:24:09;;;;;;;14.35;8.63;;;19.50;99.90;;;;;;5060978;28;20087;-57
2022/07/26 11:26:42;;;;;;;15.68;9.20;;;19.50;99.90;;;;;;5040743;28;20029;-56
2022/07/26 11:29:08;;;;;;;13.85;8.57;;;19.60;99.90;;;;;;5059473;28;20021;-56
2022/07/26 11:31:34;;;;;;;16.38;9.35;;;19.60;99.90;;;;;;5060938;28;20021;-55
2022/07/26 11:34:00;;;;;;;17.30;12.57;;;19.60;99.90;;;;;;5052879;28;20037;-55
2022/07/26 11:36:40;;;;;;;23.25;11.52;;;19.60;99.90;;;;;;5049963;28;20029;-55
2022/07/26 11:39:23;;;;;;;18.45;12.02;;;19.60;99.90;;;;;;5047960;28;20045;-55
2022/07/26 11:41:49;;;;;;;16.63;12.60;;;19.60;99.90;;;;;;5048879;28;20033;-56
2022/07/26 11:44:20;;;;;;;19.55;12.23;;;19.60;99.90;;;;;;5048404;28;20025;-55
2022/07/26 11:46:46;;;;;;;21.30;12.25;;;19.60;99.90;;;;;;5048945;28;20033;-56
2022/07/26 11:49:17;;;;;;;22.30;13.75;;;19.70;99.90;;;;;;5049402;28;20149;-55
2022/07/26 11:52:01;;;;;;;19.88;14.20;;;19.80;99.90;;;;;;5048367;28;20067;-55
2022/07/26 11:54:33;;;;;;;20.25;14.93;;;19.80;99.90;;;;;;5048708;28;20025;-56
2022/07/26 11:57:03;;;;;;;18.33;11.05;;;19.90;99.90;;;;;;5047340;28;20198;-56
2022/07/26 11:59:34;;;;;;;13.40;8.18;;;19.90;99.90;;;;;;5049552;28;20029;-56
2022/07/26 12:02:01;;;;;;;16.83;9.65;;;19.80;99.90;;;;;;5047485;28;20020;-56
2022/07/26 12:04:41;;;;;;;15.70;8.98;;;19.90;99.90;;;;;;5049612;28;20033;-56
2022/07/26 12:07:11;;;;;;;12.43;7.55;;;19.90;99.90;;;;;;5049253;28;20040;-55
2022/07/26 12:09:39;;;;;;;6.88;5.85;;;19.90;99.90;;;;;;5049132;28;20029;-56
2022/07/26 12:12:17;;;;;;;11.00;6.93;;;19.70;99.90;;;;;;5049180;28;20024;-56
2022/07/26 12:14:53;;;;;;;;;;;19.60;99.90;;;;;;5046980;28;20025;-58
2022/07/26 12:17:19;;;;;;;11.23;6.18;;;19.70;99.90;;;;;;5050609;28;19924;-56
2022/07/26 12:19:45;;;;;;;11.27;7.10;;;19.60;99.90;;;;;;5050259;28;20029;-57
2022/07/26 12:22:18;;;;;;;11.05;6.57;;;19.60;99.90;;;;;;5051571;28;20112;-58
2022/07/26 12:24:50;;;;;;;11.88;7.32;;;19.60;99.90;;;;;;5055924;28;20084;-57
2022/07/26 12:27:23;;;;;;;12.15;6.85;;;19.60;99.90;;;;;;5048968;28;20017;-57
2022/07/26 12:30:13;;;;;;;11.90;7.85;;;19.60;99.90;;;;;;5049374;28;20498;-58
2022/07/26 12:32:44;;;;;;;12.32;7.70;;;19.60;99.90;;;;;;5053340;28;20711;-58
2022/07/26 12:35:15;;;;;;;11.43;7.40;;;19.60;99.90;;;;;;5090703;28;20382;-58
2022/07/26 12:37:47;;;;;;;16.08;6.95;;;19.60;99.90;;;;;;5090155;28;20391;-59
2022/07/26 12:40:15;;;;;;;25.00;8.38;;;19.60;99.90;;;;;;5087652;28;20055;-58
2022/07/26 12:42:54;;;;;;;11.90;7.00;;;19.70;99.90;;;;;;5071700;28;20035;-57
2022/07/26 12:45:24;;;;;;;12.68;6.85;;;19.80;99.90;;;;;;5066261;28;20082;-57
2022/07/26 12:47:51;;;;;;;14.45;7.85;;;19.70;99.90;;;;;;5068358;28;20107;-58
2022/07/26 12:50:19;;;;;;;17.02;8.98;;;19.80;99.90;;;;;;5069137;28;20020;-59
2022/07/26 12:52:45;;;;;;;10.80;7.50;;;19.80;99.90;;;;;;5069912;28;20024;-57
2022/07/26 12:55:15;;;;;;;12.00;7.63;;;19.80;99.90;;;;;;5069930;28;20139;-57
2022/07/26 12:57:42;;;;;;;10.93;8.10;;;19.90;99.90;;;;;;5069456;28;20105;-57